X-preSS Tajumulco — 9V2362 — position and weather

sailwx.info

Track history (hours):
 
Tides and Currents Weather Stations Pressure Air Temp Water Temp Dewpoint Dewpoint Depression Visibility Wind Speed Wind Dir Waves Ship Positions

X-preSS Tajumulco

Last reported at 2018-Jan-12 14:53 UTC. Time now 2018-Jan-20 13:28 UTC.
Position N 11°15' W 074°34'.

Length 140 m; draft 6.9 m.

Type: Ship (hazmat cat A). MMSI: 564050000.

Date/timePositionNaut miles runAvg speedWind from/ knotsBaromVisibWave heightAir tempDewpointWater temp
2018-Jan-12 14:53N 11°15' W 074°34'411.1
2018-Jan-12 14:30N 11°14' W 074°38'611.0
2018-Jan-12 14:00N 11°12' W 074°43'510.6
2018-Jan-12 13:30N 11°11' W 074°48'5 9.8
2018-Jan-12 13:00N 11°08' W 074°52'4 8.4
2018-Jan-12 12:29N 11°04' W 074°50'510.5
2018-Jan-12 12:00N 11°01' W 074°46'3 5.5
2018-Jan-12 11:30N 10°58' W 074°46'0 0.0
2018-Jan-12 11:00N 10°58' W 074°46'0 0.0
2018-Jan-12 10:30N 10°58' W 074°46'0 0.0
2018-Jan-12 10:00N 10°58' W 074°46'0 0.0
2018-Jan-12 09:30N 10°58' W 074°46'0 0.0
2018-Jan-12 08:57N 10°58' W 074°46'0 0.0
2018-Jan-12 08:30N 10°58' W 074°46'0 0.0
2018-Jan-12 08:00N 10°58' W 074°46'0 0.0
2018-Jan-12 07:30N 10°58' W 074°46'0 0.0
2018-Jan-12 07:00N 10°58' W 074°46'0 0.0
2018-Jan-12 06:30N 10°58' W 074°46'0 0.0
2018-Jan-12 05:57N 10°58' W 074°46'0 0.0
2018-Jan-12 05:27N 10°58' W 074°46'0 0.0
2018-Jan-12 05:00N 10°58' W 074°46'0 0.0
2018-Jan-12 04:30N 10°58' W 074°46'0 0.0
2018-Jan-12 03:54N 10°58' W 074°46'0 0.0
2018-Jan-12 03:30N 10°58' W 074°46'0 0.0
2018-Jan-12 03:00N 10°58' W 074°46'0 0.0
2018-Jan-12 02:30N 10°58' W 074°46'0 0.0
2018-Jan-12 02:00N 10°58' W 074°46'0 0.0
2018-Jan-12 01:30N 10°58' W 074°46'0 0.0
2018-Jan-12 01:00N 10°58' W 074°46'0 0.0
2018-Jan-12 00:30N 10°58' W 074°46'0 0.2
2018-Jan-12 00:00N 10°58' W 074°45'3 5.9
2018-Jan-11 23:30N 11°01' W 074°46'3 6.7
2018-Jan-11 22:59N 11°03' W 074°49'3 6.3
2018-Jan-11 22:30N 11°05' W 074°51'3 6.7
2018-Jan-11 21:59N 11°07' W 074°54'5 9.8
2018-Jan-11 21:30N 11°06' W 074°59'5012.8
2018-Jan-11 17:34N 10°36' W 075°40'113.9
2018-Jan-11 17:30N 10°35' W 075°40'713.7
2018-Jan-11 17:00N 10°29' W 075°44'713.3
2018-Jan-11 16:30N 10°23' W 075°44'610.9
2018-Jan-11 16:00N 10°20' W 075°39'5 9.5
2018-Jan-11 15:30N 10°19' W 075°34'4 7.2
2018-Jan-11 15:00N 10°22' W 075°32'3 4.8
2018-Jan-11 14:28N 10°24' W 075°32'0 0.0
2018-Jan-11 13:58N 10°24' W 075°32'0 0.0
2018-Jan-11 13:25N 10°24' W 075°32'0 0.0
2018-Jan-11 12:58N 10°24' W 075°32'0 0.0
2018-Jan-11 12:25N 10°24' W 075°32'0 0.0
2018-Jan-11 11:58N 10°24' W 075°32'0 0.0
2018-Jan-11 11:19N 10°24' W 075°32'0 0.0
2018-Jan-11 10:58N 10°24' W 075°32'252 8.9
2018-Jan-10 06:34N 09°39' W 079°44'114.6
2018-Jan-10 06:30N 09°38' W 079°45'714.6
2018-Jan-10 06:00N 09°32' W 079°50'713.8
2018-Jan-10 05:30N 09°26' W 079°54'5 9.1
2018-Jan-10 05:01N 09°22' W 079°53'1 1.3
2018-Jan-10 04:30N 09°21' W 079°53'0 0.0
2018-Jan-10 04:00N 09°21' W 079°53'0 0.0
2018-Jan-10 03:30N 09°21' W 079°53'0 0.0
2018-Jan-10 03:00N 09°21' W 079°53'0 0.0
2018-Jan-10 02:30N 09°21' W 079°53'0 0.0
2018-Jan-10 02:00N 09°21' W 079°53'0 0.0
2018-Jan-10 01:30N 09°21' W 079°53'0 0.0
2018-Jan-10 01:00N 09°21' W 079°53'0 0.0
2018-Jan-10 00:30N 09°21' W 079°53'0 0.0
2018-Jan-10 00:00N 09°21' W 079°53'0 0.0
2018-Jan-09 23:30N 09°21' W 079°53'0 0.0
2018-Jan-09 23:00N 09°21' W 079°53'0 0.0
2018-Jan-09 22:30N 09°21' W 079°53'0 0.0
2018-Jan-09 22:00N 09°21' W 079°53'0 0.0
2018-Jan-09 21:30N 09°21' W 079°53'0 0.0
2018-Jan-09 21:00N 09°21' W 079°53'0 0.0
2018-Jan-09 20:30N 09°21' W 079°53'0 0.0
2018-Jan-09 20:00N 09°21' W 079°53'0 0.0
2018-Jan-09 19:30N 09°21' W 079°53'0 0.0
2018-Jan-09 19:00N 09°21' W 079°53'0 0.0
2018-Jan-09 18:27N 09°21' W 079°53'0 0.0
2018-Jan-09 18:00N 09°21' W 079°53'0 0.0
2018-Jan-09 17:30N 09°21' W 079°53'0 0.0
2018-Jan-09 17:00N 09°21' W 079°53'0 0.0
2018-Jan-09 16:30N 09°21' W 079°53'0 0.0
2018-Jan-09 16:00N 09°21' W 079°53'0 0.0
2018-Jan-09 15:30N 09°21' W 079°53'0 0.0
2018-Jan-09 15:00N 09°21' W 079°53'0 0.0
2018-Jan-09 14:30N 09°21' W 079°53'0 0.0
2018-Jan-09 14:00N 09°21' W 079°53'0 0.0
2018-Jan-09 13:30N 09°21' W 079°53'0 0.0
2018-Jan-09 13:00N 09°21' W 079°53'0 0.0
2018-Jan-09 12:30N 09°21' W 079°53'0 0.0
2018-Jan-09 12:00N 09°21' W 079°53'0 0.0
2018-Jan-09 11:30N 09°21' W 079°53'1 2.2
2018-Jan-09 11:00N 09°22' W 079°54'3 6.4
2018-Jan-09 10:30N 09°25' W 079°54'2 4.0
2018-Jan-09 10:00N 09°27' W 079°53'4 8.8
2018-Jan-09 09:30N 09°32' W 079°52'510.8
2018-Jan-09 09:00N 09°37' W 079°52'610.3
2018-Jan-09 08:26N 09°43' W 079°50'  
Track history (hours):
 
Tides and Currents Weather Stations Pressure Air Temp Water Temp Dewpoint Dewpoint Depression Visibility Wind Speed Wind Dir Waves Ship Positions

X-preSS Tajumulco

Last reported at 2018-Jan-12 14:53 UTC. Time now 2018-Jan-20 13:28 UTC.
Position N 11°15' W 074°34'.

Length 140 m; draft 6.9 m.

Type: Ship (hazmat cat A). MMSI: 564050000.

Date/timePositionNaut miles runAvg speedWind from/ knotsBaromVisibWave heightAir tempDewpointWater temp
2018-Jan-12 14:53N 11°15' W 074°34'411.1
2018-Jan-12 14:30N 11°14' W 074°38'611.0
2018-Jan-12 14:00N 11°12' W 074°43'510.6
2018-Jan-12 13:30N 11°11' W 074°48'5 9.8
2018-Jan-12 13:00N 11°08' W 074°52'4 8.4
2018-Jan-12 12:29N 11°04' W 074°50'510.5
2018-Jan-12 12:00N 11°01' W 074°46'3 5.5
2018-Jan-12 11:30N 10°58' W 074°46'0 0.0
2018-Jan-12 11:00N 10°58' W 074°46'0 0.0
2018-Jan-12 10:30N 10°58' W 074°46'0 0.0
2018-Jan-12 10:00N 10°58' W 074°46'0 0.0
2018-Jan-12 09:30N 10°58' W 074°46'0 0.0
2018-Jan-12 08:57N 10°58' W 074°46'0 0.0
2018-Jan-12 08:30N 10°58' W 074°46'0 0.0
2018-Jan-12 08:00N 10°58' W 074°46'0 0.0
2018-Jan-12 07:30N 10°58' W 074°46'0 0.0
2018-Jan-12 07:00N 10°58' W 074°46'0 0.0
2018-Jan-12 06:30N 10°58' W 074°46'0 0.0
2018-Jan-12 05:57N 10°58' W 074°46'0 0.0
2018-Jan-12 05:27N 10°58' W 074°46'0 0.0
2018-Jan-12 05:00N 10°58' W 074°46'0 0.0
2018-Jan-12 04:30N 10°58' W 074°46'0 0.0
2018-Jan-12 03:54N 10°58' W 074°46'0 0.0
2018-Jan-12 03:30N 10°58' W 074°46'0 0.0
2018-Jan-12 03:00N 10°58' W 074°46'0 0.0
2018-Jan-12 02:30N 10°58' W 074°46'0 0.0
2018-Jan-12 02:00N 10°58' W 074°46'0 0.0
2018-Jan-12 01:30N 10°58' W 074°46'0 0.0
2018-Jan-12 01:00N 10°58' W 074°46'0 0.0
2018-Jan-12 00:30N 10°58' W 074°46'0 0.2
2018-Jan-12 00:00N 10°58' W 074°45'3 5.9
2018-Jan-11 23:30N 11°01' W 074°46'3 6.7
2018-Jan-11 22:59N 11°03' W 074°49'3 6.3
2018-Jan-11 22:30N 11°05' W 074°51'3 6.7
2018-Jan-11 21:59N 11°07' W 074°54'5 9.8
2018-Jan-11 21:30N 11°06' W 074°59'5012.8
2018-Jan-11 17:34N 10°36' W 075°40'113.9
2018-Jan-11 17:30N 10°35' W 075°40'713.7
2018-Jan-11 17:00N 10°29' W 075°44'713.3
2018-Jan-11 16:30N 10°23' W 075°44'610.9
2018-Jan-11 16:00N 10°20' W 075°39'5 9.5
2018-Jan-11 15:30N 10°19' W 075°34'4 7.2
2018-Jan-11 15:00N 10°22' W 075°32'3 4.8
2018-Jan-11 14:28N 10°24' W 075°32'0 0.0
2018-Jan-11 13:58N 10°24' W 075°32'0 0.0
2018-Jan-11 13:25N 10°24' W 075°32'0 0.0
2018-Jan-11 12:58N 10°24' W 075°32'0 0.0
2018-Jan-11 12:25N 10°24' W 075°32'0 0.0
2018-Jan-11 11:58N 10°24' W 075°32'0 0.0
2018-Jan-11 11:19N 10°24' W 075°32'0 0.0
2018-Jan-11 10:58N 10°24' W 075°32'252 8.9
2018-Jan-10 06:34N 09°39' W 079°44'114.6
2018-Jan-10 06:30N 09°38' W 079°45'714.6
2018-Jan-10 06:00N 09°32' W 079°50'713.8
2018-Jan-10 05:30N 09°26' W 079°54'5 9.1
2018-Jan-10 05:01N 09°22' W 079°53'1 1.3
2018-Jan-10 04:30N 09°21' W 079°53'0 0.0
2018-Jan-10 04:00N 09°21' W 079°53'0 0.0
2018-Jan-10 03:30N 09°21' W 079°53'0 0.0
2018-Jan-10 03:00N 09°21' W 079°53'0 0.0
2018-Jan-10 02:30N 09°21' W 079°53'0 0.0
2018-Jan-10 02:00N 09°21' W 079°53'0 0.0
2018-Jan-10 01:30N 09°21' W 079°53'0 0.0
2018-Jan-10 01:00N 09°21' W 079°53'0 0.0
2018-Jan-10 00:30N 09°21' W 079°53'0 0.0
2018-Jan-10 00:00N 09°21' W 079°53'0 0.0
2018-Jan-09 23:30N 09°21' W 079°53'0 0.0
2018-Jan-09 23:00N 09°21' W 079°53'0 0.0
2018-Jan-09 22:30N 09°21' W 079°53'0 0.0
2018-Jan-09 22:00N 09°21' W 079°53'0 0.0
2018-Jan-09 21:30N 09°21' W 079°53'0 0.0
2018-Jan-09 21:00N 09°21' W 079°53'0 0.0
2018-Jan-09 20:30N 09°21' W 079°53'0 0.0
2018-Jan-09 20:00N 09°21' W 079°53'0 0.0
2018-Jan-09 19:30N 09°21' W 079°53'0 0.0
2018-Jan-09 19:00N 09°21' W 079°53'0 0.0
2018-Jan-09 18:27N 09°21' W 079°53'0 0.0
2018-Jan-09 18:00N 09°21' W 079°53'0 0.0
2018-Jan-09 17:30N 09°21' W 079°53'0 0.0
2018-Jan-09 17:00N 09°21' W 079°53'0 0.0
2018-Jan-09 16:30N 09°21' W 079°53'0 0.0
2018-Jan-09 16:00N 09°21' W 079°53'0 0.0
2018-Jan-09 15:30N 09°21' W 079°53'0 0.0
2018-Jan-09 15:00N 09°21' W 079°53'0 0.0
2018-Jan-09 14:30N 09°21' W 079°53'0 0.0
2018-Jan-09 14:00N 09°21' W 079°53'0 0.0
2018-Jan-09 13:30N 09°21' W 079°53'0 0.0
2018-Jan-09 13:00N 09°21' W 079°53'0 0.0
2018-Jan-09 12:30N 09°21' W 079°53'0 0.0
2018-Jan-09 12:00N 09°21' W 079°53'0 0.0
2018-Jan-09 11:30N 09°21' W 079°53'1 2.2
2018-Jan-09 11:00N 09°22' W 079°54'3 6.4
2018-Jan-09 10:30N 09°25' W 079°54'2 4.0
2018-Jan-09 10:00N 09°27' W 079°53'4 8.8
2018-Jan-09 09:30N 09°32' W 079°52'510.8
2018-Jan-09 09:00N 09°37' W 079°52'610.3
2018-Jan-09 08:26N 09°43' W 079°50'  

Dump ship's entire track history